Time;durP1;ratioP1;P1;durP2;ratioP2;P2;SDS_P1;SDS_P2;PMS_P1;PMS_P2;Temp;Humidity;BMP_temperature;BMP_pressure;BME280_temperature;BME280_humidity;BME280_pressure;Samples;Min_cycle;Max_cycle;Signal;HPM_P1;HPM_P2
2023/09/14 00:01:17;;;;;;;2.00;0.30;;;;;;;16.51;100.00;99509.88;109145;1288;22266;-48
2023/09/14 00:03:46;;;;;;;2.00;0.40;;;;;;;16.48;100.00;99513.83;109618;1286;22483;-48
2023/09/14 00:06:15;;;;;;;2.50;0.50;;;;;;;16.46;100.00;99512.20;109524;1284;99681;-47
2023/09/14 00:08:43;;;;;;;0.80;0.40;;;;;;;16.47;100.00;99517.45;109359;1283;22181;-47
2023/09/14 00:11:13;;;;;;;1.10;0.40;;;;;;;16.47;100.00;99515.66;109532;1283;99685;-48
2023/09/14 00:13:41;;;;;;;1.10;0.30;;;;;;;16.48;100.00;99513.77;109454;1286;22168;-47
2023/09/14 00:16:10;;;;;;;1.00;0.50;;;;;;;16.48;100.00;99514.55;109603;1284;22157;-48
2023/09/14 00:18:38;;;;;;;2.30;1.00;;;;;;;16.50;100.00;99514.86;109484;1285;99546;-47
2023/09/14 00:21:07;;;;;;;1.00;0.40;;;;;;;16.52;100.00;99514.53;109601;1286;22277;-47
2023/09/14 00:23:36;;;;;;;0.90;0.40;;;;;;;16.54;100.00;99514.73;109345;1283;99609;-47
2023/09/14 00:26:05;;;;;;;2.70;1.30;;;;;;;16.57;100.00;99512.95;109589;1283;22285;-48
2023/09/14 00:28:33;;;;;;;0.90;0.50;;;;;;;16.60;100.00;99513.77;109560;1283;100765;-47
2023/09/14 00:31:02;;;;;;;1.20;0.60;;;;;;;16.59;100.00;99514.75;109636;1283;22217;-47
2023/09/14 00:33:31;;;;;;;3.00;0.50;;;;;;;16.59;100.00;99518.13;109366;1286;22327;-47
2023/09/14 00:36:01;;;;;;;1.50;0.40;;;;;;;16.57;100.00;99521.39;109339;1283;100503;-49
2023/09/14 00:38:30;;;;;;;1.60;0.30;;;;;;;16.59;100.00;99520.74;109649;1284;22053;-48
2023/09/14 00:40:58;;;;;;;1.00;0.50;;;;;;;16.60;100.00;99519.09;109303;1283;100422;-48
2023/09/14 00:43:28;;;;;;;0.80;0.30;;;;;;;16.59;100.00;99522.80;109286;1284;22398;-46
2023/09/14 00:46:02;;;;;;;1.60;0.40;;;;;;;16.61;100.00;99521.30;109396;1283;22439;-46
2023/09/14 00:48:32;;;;;;;0.70;0.30;;;;;;;16.60;100.00;99523.66;109546;1284;100030;-47
2023/09/14 00:51:03;;;;;;;0.80;0.50;;;;;;;16.60;100.00;99524.66;109611;1285;22311;-47
2023/09/14 00:53:32;;;;;;;3.80;1.30;;;;;;;16.60;100.00;99524.30;109514;1288;99573;-47
2023/09/14 00:56:02;;;;;;;1.20;0.60;;;;;;;16.58;100.00;99523.79;109583;1285;22328;-47
2023/09/14 00:58:31;;;;;;;0.90;0.40;;;;;;;16.54;100.00;99526.70;109361;1283;99660;-47
2023/09/14 01:01:16;;;;;;;1.10;0.40;;;;;;;16.51;100.00;99528.55;109361;1261;22038;31
2023/09/14 01:03:45;;;;;;;0.50;0.20;;;;;;;16.47;100.00;99531.79;109456;1286;22186;-46
2023/09/14 01:06:14;;;;;;;1.40;0.40;;;;;;;16.46;100.00;99534.05;109340;1286;99565;-47
2023/09/14 01:08:42;;;;;;;0.40;0.30;;;;;;;16.44;100.00;99533.10;109470;1286;22389;-48
2023/09/14 01:11:11;;;;;;;0.40;0.30;;;;;;;16.47;100.00;99540.95;109391;1286;99661;-47
2023/09/14 01:13:57;;;;;;;0.80;0.50;;;;;;;16.49;100.00;99541.70;109514;1286;22181;-48
2023/09/14 01:16:36;;;;;;;0.20;0.20;;;;;;;16.52;100.00;99546.56;109502;1286;22225;-47
2023/09/14 01:19:20;;;;;;;0.30;0.30;;;;;;;16.52;100.00;99548.52;109499;1286;22156;-47
2023/09/14 01:22:16;;;;;;;1.30;0.20;;;;;;;16.47;100.00;99551.50;109515;1285;22284;-48
2023/09/14 01:24:56;;;;;;;1.60;0.30;;;;;;;16.44;100.00;99556.65;109417;1286;99301;-48
2023/09/14 01:27:25;;;;;;;0.40;0.40;;;;;;;16.41;100.00;99560.39;109478;1285;22391;-47
2023/09/14 01:29:58;;;;;;;1.00;0.50;;;;;;;16.41;100.00;99562.67;109315;1279;99089;-47
2023/09/14 01:32:27;;;;;;;1.50;0.40;;;;;;;16.40;100.00;99562.91;109427;1285;22284;-47
2023/09/14 01:34:56;;;;;;;2.30;0.70;;;;;;;16.42;100.00;99566.85;109410;1285;100602;-47
2023/09/14 01:37:25;;;;;;;1.30;0.50;;;;;;;16.42;100.00;99563.83;109469;1286;22225;-48
2023/09/14 01:39:56;;;;;;;0.90;0.60;;;;;;;16.41;100.00;99565.10;109493;1286;22185;-48
2023/09/14 01:42:25;;;;;;;2.60;1.40;;;;;;;16.44;100.00;99566.81;109424;1286;100184;-47
2023/09/14 01:44:54;;;;;;;1.20;0.40;;;;;;;16.44;100.00;99568.20;109502;1286;22181;-47
2023/09/14 01:47:22;;;;;;;1.40;0.60;;;;;;;16.42;100.00;99571.73;109309;1287;99839;-48
2023/09/14 01:49:51;;;;;;;0.50;0.40;;;;;;;16.41;100.00;99569.17;109496;1286;22283;-47
2023/09/14 01:52:20;;;;;;;0.70;0.40;;;;;;;16.40;100.00;99568.21;109517;1286;22415;-47
2023/09/14 01:54:49;;;;;;;0.70;0.40;;;;;;;16.41;100.00;99571.80;109386;1283;99288;-47
2023/09/14 01:57:18;;;;;;;1.10;0.50;;;;;;;16.40;100.00;99568.15;109465;1284;22386;-47
2023/09/14 01:59:46;;;;;;;0.90;0.40;;;;;;;16.36;100.00;99572.00;109399;1284;98474;-47
2023/09/14 02:02:15;;;;;;;1.40;0.20;;;;;;;16.32;100.00;99580.70;109482;1285;22356;-46
2023/09/14 02:04:46;;;;;;;0.60;0.20;;;;;;;16.29;100.00;99580.02;109381;1284;100658;-47
2023/09/14 02:07:15;;;;;;;0.90;0.50;;;;;;;16.29;100.00;99580.36;109424;1283;22395;-47
2023/09/14 02:09:43;;;;;;;0.70;0.20;;;;;;;16.29;100.00;99581.77;109511;1286;23125;-47
2023/09/14 02:12:12;;;;;;;0.80;0.20;;;;;;;16.29;100.00;99587.60;109440;1287;100046;-48
2023/09/14 02:14:40;;;;;;;4.10;0.60;;;;;;;16.30;100.00;99587.52;109474;1285;22938;-48
2023/09/14 02:17:09;;;;;;;0.60;0.30;;;;;;;16.30;100.00;99588.55;109417;1285;99758;-46
2023/09/14 02:19:37;;;;;;;0.80;0.40;;;;;;;16.33;100.00;99587.10;109444;1285;22913;-47
2023/09/14 02:22:06;;;;;;;2.20;0.60;;;;;;;16.37;100.00;99591.93;109390;1286;22185;-47
2023/09/14 02:24:34;;;;;;;1.70;0.40;;;;;;;16.38;100.00;99591.90;109320;1286;99824;-46
2023/09/14 02:27:03;;;;;;;0.70;0.50;;;;;;;16.33;100.00;99590.81;109378;1286;22952;-48
2023/09/14 02:29:32;;;;;;;0.70;0.40;;;;;;;16.30;100.00;99592.23;109451;1286;99987;-49
2023/09/14 02:32:00;;;;;;;0.80;0.30;;;;;;;16.29;100.00;99586.67;109593;1286;22322;-48
2023/09/14 02:34:29;;;;;;;1.20;0.40;;;;;;;16.25;100.00;99587.70;109502;1286;22315;-47
2023/09/14 02:36:57;;;;;;;1.00;0.40;;;;;;;16.21;100.00;99589.06;109503;1285;22106;-47
2023/09/14 02:39:26;;;;;;;0.80;0.30;;;;;;;16.19;100.00;99588.83;109475;1284;22299;-47
2023/09/14 02:41:54;;;;;;;1.30;0.90;;;;;;;16.19;100.00;99590.58;109395;1286;100124;-44
2023/09/14 02:44:24;;;;;;;0.60;0.50;;;;;;;16.18;100.00;99593.27;109530;1285;22271;-45
2023/09/14 02:46:52;;;;;;;0.20;0.10;;;;;;;16.17;100.00;99595.30;109256;1277;100430;-44
2023/09/14 02:49:21;;;;;;;0.60;0.30;;;;;;;16.16;100.00;99594.15;109474;1286;22168;-45
2023/09/14 02:51:51;;;;;;;1.20;0.60;;;;;;;16.16;100.00;99592.40;109531;1284;22301;-44
2023/09/14 02:54:21;;;;;;;1.10;0.40;;;;;;;16.14;100.00;99593.96;109393;1285;100513;-44
2023/09/14 02:56:49;;;;;;;1.20;0.30;;;;;;;16.13;100.00;99600.19;109153;1276;22198;-50
2023/09/14 02:59:18;;;;;;;0.30;0.20;;;;;;;16.14;100.00;99600.23;109407;1285;100095;-47
2023/09/14 03:01:49;;;;;;;0.50;0.20;;;;;;;16.09;100.00;99602.05;109409;1283;22308;-48
2023/09/14 03:04:18;;;;;;;4.30;0.60;;;;;;;16.04;100.00;99600.80;109497;1284;22155;-47
2023/09/14 03:06:47;;;;;;;1.00;0.30;;;;;;;16.06;100.00;99600.16;109292;1278;99331;-48
2023/09/14 03:09:16;;;;;;;1.00;0.30;;;;;;;16.07;100.00;99607.09;109241;1283;22300;-48
2023/09/14 03:11:44;;;;;;;1.10;0.60;;;;;;;16.10;100.00;99606.55;109322;1284;99641;-47
2023/09/14 03:14:13;;;;;;;0.80;0.40;;;;;;;16.11;100.00;99608.77;109484;1286;22139;-48
2023/09/14 03:16:41;;;;;;;0.70;0.40;;;;;;;16.10;100.00;99606.91;109314;1284;99973;-47
2023/09/14 03:19:10;;;;;;;0.60;0.30;;;;;;;16.09;100.00;99617.86;109200;1283;22286;-47
2023/09/14 03:21:38;;;;;;;0.80;0.30;;;;;;;16.09;100.00;99621.02;109339;1286;22151;-47
2023/09/14 03:24:07;;;;;;;0.70;0.20;;;;;;;16.09;100.00;99632.94;109382;1285;99528;-48
2023/09/14 03:26:35;;;;;;;0.70;0.40;;;;;;;16.03;100.00;99638.09;109486;1285;22163;-48
2023/09/14 03:29:04;;;;;;;1.10;0.30;;;;;;;15.98;100.00;99642.20;109401;1284;100262;-48
2023/09/14 03:31:37;;;;;;;0.50;0.50;;;;;;;15.91;100.00;99639.69;109394;1286;22909;-47
2023/09/14 03:34:07;;;;;;;1.70;0.60;;;;;;;15.80;100.00;99640.80;109443;1286;22329;-49
2023/09/14 03:36:36;;;;;;;0.70;0.40;;;;;;;15.72;100.00;99642.27;109300;1283;100091;-51
2023/09/14 03:39:05;;;;;;;0.70;0.40;;;;;;;15.69;100.00;99642.27;109340;1284;22419;-47
2023/09/14 03:41:33;;;;;;;1.20;0.20;;;;;;;15.72;100.00;99647.68;109242;1285;100317;-50
2023/09/14 03:44:02;;;;;;;0.40;0.30;;;;;;;15.75;100.00;99645.67;109350;1285;22336;-49
2023/09/14 03:46:30;;;;;;;0.60;0.20;;;;;;;15.80;100.00;99650.23;109283;1286;100159;-48
2023/09/14 03:49:02;;;;;;;0.80;0.20;;;;;;;15.84;100.00;99658.05;109444;1284;22360;-47
2023/09/14 03:51:30;;;;;;;1.20;0.40;;;;;;;15.86;100.00;99664.02;109448;1284;22397;-49
2023/09/14 03:53:59;;;;;;;1.00;0.50;;;;;;;15.92;100.00;99668.08;109346;1286;98738;-48
2023/09/14 03:56:29;;;;;;;1.10;0.30;;;;;;;15.93;100.00;99668.19;109502;1285;23297;-49
2023/09/14 03:58:57;;;;;;;0.30;0.20;;;;;;;15.94;100.00;99674.38;109438;1286;100365;-48
2023/09/14 04:01:26;;;;;;;0.10;0.10;;;;;;;15.97;100.00;99679.85;109479;1284;22920;-47
2023/09/14 04:03:54;;;;;;;2.50;0.50;;;;;;;15.99;100.00;99681.39;109471;1283;22196;-47
2023/09/14 04:06:23;;;;;;;0.80;0.40;;;;;;;16.00;100.00;99684.17;109267;1279;101169;-48
2023/09/14 04:08:52;;;;;;;2.00;1.20;;;;;;;16.01;100.00;99686.35;109373;1286;23466;-49
2023/09/14 04:11:20;;;;;;;1.80;0.60;;;;;;;16.02;100.00;99685.40;109433;1283;100075;-48
2023/09/14 04:13:49;;;;;;;1.20;0.70;;;;;;;16.02;100.00;99686.96;109482;1283;22336;-50
2023/09/14 04:16:17;;;;;;;1.80;0.80;;;;;;;16.04;100.00;99690.34;109471;1273;22180;-48
2023/09/14 04:18:46;;;;;;;2.20;0.60;;;;;;;16.06;100.00;99695.00;109384;1286;99327;-48
2023/09/14 04:21:15;;;;;;;0.80;0.50;;;;;;;16.05;100.00;99703.79;109426;1283;22183;-48
2023/09/14 04:23:45;;;;;;;1.20;0.70;;;;;;;16.08;100.00;99704.10;109407;1284;99503;-47
2023/09/14 04:26:13;;;;;;;1.80;0.80;;;;;;;16.10;100.00;99710.98;109476;1286;22148;-48
2023/09/14 04:28:42;;;;;;;1.10;0.60;;;;;;;16.10;100.00;99712.41;109425;1286;99638;-48
2023/09/14 04:31:11;;;;;;;1.20;0.60;;;;;;;16.11;100.00;99714.14;109519;1283;23381;-48
2023/09/14 04:33:42;;;;;;;1.30;0.60;;;;;;;16.11;100.00;99714.64;109489;1286;23007;-47
2023/09/14 04:36:11;;;;;;;4.80;0.50;;;;;;;16.12;100.00;99718.77;109405;1286;99734;-49
2023/09/14 04:38:39;;;;;;;0.60;0.40;;;;;;;16.15;100.00;99725.41;109496;1286;22357;-47
2023/09/14 04:41:07;;;;;;;6.80;0.60;;;;;;;16.14;100.00;99721.11;109398;1285;100851;-47
2023/09/14 04:43:38;;;;;;;0.50;0.40;;;;;;;16.15;100.00;99733.33;109492;1284;22129;-48
2023/09/14 04:46:07;;;;;;;0.90;0.60;;;;;;;16.17;100.00;99735.60;109505;1283;22322;-48
2023/09/14 04:48:41;;;;;;;1.90;0.50;;;;;;;16.22;100.00;99736.00;109198;1283;104997;-47
2023/09/14 04:51:10;;;;;;;1.50;0.50;;;;;;;16.25;100.00;99735.40;109369;1285;22513;-47
2023/09/14 04:53:38;;;;;;;1.20;0.40;;;;;;;16.26;100.00;99735.87;109404;1284;99692;-48
2023/09/14 04:56:07;;;;;;;1.80;0.40;;;;;;;16.24;100.00;99734.91;109476;1285;22164;-47
2023/09/14 04:58:36;;;;;;;1.40;0.20;;;;;;;16.25;100.00;99740.66;109169;1284;99998;-48
2023/09/14 05:01:05;;;;;;;0.70;0.30;;;;;;;16.30;100.00;99741.51;109493;1286;22119;-48
2023/09/14 05:03:34;;;;;;;0.70;0.40;;;;;;;16.35;100.00;99743.48;109455;1283;22145;-47
2023/09/14 05:06:02;;;;;;;3.00;0.50;;;;;;;16.42;100.00;99748.48;109291;1286;99753;-48
2023/09/14 05:08:31;;;;;;;0.60;0.30;;;;;;;16.46;100.00;99752.75;109362;1287;22322;-47
2023/09/14 05:11:01;;;;;;;2.90;0.70;;;;;;;16.48;100.00;99755.23;109406;1286;99705;-49
2023/09/14 05:13:30;;;;;;;1.10;0.40;;;;;;;16.45;100.00;99757.02;109275;1285;22187;-46
2023/09/14 05:15:59;;;;;;;1.00;0.40;;;;;;;16.52;100.00;99761.11;109492;1286;22271;-47
2023/09/14 05:18:29;;;;;;;1.20;0.60;;;;;;;16.56;100.00;99763.95;109394;1285;100630;-50
2023/09/14 05:20:58;;;;;;;1.70;0.50;;;;;;;16.57;100.00;99761.59;109453;1284;23026;-47
2023/09/14 05:23:26;;;;;;;0.60;0.40;;;;;;;16.57;100.00;99766.52;109402;1283;100310;-47
2023/09/14 05:25:55;;;;;;;0.50;0.50;;;;;;;16.57;100.00;99773.21;109459;1286;22151;-55
2023/09/14 05:28:24;;;;;;;0.40;0.30;;;;;;;16.56;100.00;99782.09;109463;1283;22969;-45
2023/09/14 05:30:52;;;;;;;0.50;0.20;;;;;;;16.54;100.00;99783.09;109372;1285;100009;-48
2023/09/14 05:33:22;;;;;;;0.70;0.40;;;;;;;16.46;100.00;99790.35;109434;1286;22289;-46
2023/09/14 05:35:51;;;;;;;3.30;0.30;;;;;;;16.41;100.00;99794.90;109274;1286;99721;-47
2023/09/14 05:38:20;;;;;;;0.90;0.40;;;;;;;16.39;100.00;99799.11;109226;1284;22293;-47
2023/09/14 05:40:52;;;;;;;1.10;0.30;;;;;;;16.38;100.00;99798.30;109425;1276;99759;-49
2023/09/14 05:43:20;;;;;;;4.70;0.40;;;;;;;16.37;100.00;99795.88;109468;1284;22145;-47
2023/09/14 05:45:50;;;;;;;1.30;0.40;;;;;;;16.39;100.00;99794.73;109422;1284;22855;-53
2023/09/14 05:48:19;;;;;;;0.30;0.30;;;;;;;16.44;100.00;99798.55;109056;1286;99942;-48
2023/09/14 05:50:48;;;;;;;0.50;0.10;;;;;;;16.49;100.00;99802.75;109457;1283;22323;-50
2023/09/14 05:53:17;;;;;;;3.40;0.90;;;;;;;16.48;100.00;99801.04;109279;1283;100104;-51
2023/09/14 05:55:46;;;;;;;0.60;0.30;;;;;;;16.51;100.00;99802.47;109189;1283;22258;-44
2023/09/14 05:58:28;;;;;;;3.30;0.70;;;;;;;16.56;100.00;99802.98;109409;1284;23001;-46
2023/09/14 06:00:57;;;;;;;2.10;0.30;;;;;;;16.64;100.00;99800.45;109252;1285;22298;-55
2023/09/14 06:03:26;;;;;;;2.70;0.50;;;;;;;16.71;100.00;99803.16;109373;1284;22227;-53
2023/09/14 06:06:04;;;;;;;0.60;0.30;;;;;;;16.75;100.00;99799.52;108185;1283;1463745;-56
2023/09/14 06:09:02;;;;;;;4.70;0.50;;;;;;;16.81;100.00;99808.48;109219;1283;22267;-53
2023/09/14 06:11:31;;;;;;;1.00;0.30;;;;;;;16.89;100.00;99811.89;109176;1279;100643;-50
2023/09/14 06:14:00;;;;;;;1.40;0.30;;;;;;;16.91;100.00;99813.34;109430;1285;23042;-48
2023/09/14 06:16:29;;;;;;;0.90;0.40;;;;;;;16.92;100.00;99815.55;109348;1284;22821;-48
2023/09/14 06:18:59;;;;;;;4.80;0.60;;;;;;;16.92;100.00;99815.86;109313;1284;22331;-56
2023/09/14 06:21:28;;;;;;;0.80;0.50;;;;;;;16.92;100.00;99821.15;109444;1286;22298;-46
2023/09/14 06:23:56;;;;;;;0.90;0.40;;;;;;;17.01;100.00;99821.56;109192;1283;106253;-52
2023/09/14 06:26:31;;;;;;;0.70;0.30;;;;;;;17.16;100.00;99823.46;109452;1279;22347;-55
2023/09/14 06:29:00;;;;;;;0.60;0.30;;;;;;;17.46;100.00;99824.45;109292;1286;100564;-52
2023/09/14 06:31:29;;;;;;;1.50;0.60;;;;;;;17.80;100.00;99832.65;109321;1283;22186;-47
2023/09/14 06:33:58;;;;;;;0.40;0.20;;;;;;;18.03;100.00;99831.96;109330;1286;22245;-48
2023/09/14 06:36:26;;;;;;;2.00;0.70;;;;;;;18.15;100.00;99834.23;109240;1286;99727;-50
2023/09/14 06:38:55;;;;;;;1.20;0.50;;;;;;;18.24;100.00;99837.41;109479;1286;22204;-47
2023/09/14 06:41:24;;;;;;;2.10;0.70;;;;;;;18.42;100.00;99839.56;109356;1284;100525;-49
2023/09/14 06:43:52;;;;;;;0.40;0.40;;;;;;;18.61;100.00;99841.73;109508;1284;22056;-49
2023/09/14 06:46:21;;;;;;;1.30;0.30;;;;;;;18.71;100.00;99842.93;109482;1286;22456;-46
2023/09/14 06:48:50;;;;;;;0.80;0.50;;;;;;;18.72;100.00;99848.08;109177;1285;99484;-50
2023/09/14 06:51:18;;;;;;;1.30;0.40;;;;;;;18.69;100.00;99852.59;109453;1285;24279;-48
2023/09/14 06:53:47;;;;;;;3.00;1.00;;;;;;;18.59;100.00;99859.34;109386;1286;100301;-47
2023/09/14 06:56:29;;;;;;;4.10;0.80;;;;;;;18.50;100.00;99862.17;109420;1284;22163;-49
2023/09/14 06:58:58;;;;;;;2.50;0.70;;;;;;;18.36;100.00;99863.45;109173;1286;100478;-48
2023/09/14 07:01:31;;;;;;;1.60;0.60;;;;;;;18.30;100.00;99865.31;109262;1286;22360;-47
2023/09/14 07:04:01;;;;;;;1.40;0.60;;;;;;;18.29;100.00;99862.03;109146;1270;22389;-46
2023/09/14 07:06:34;;;;;;;4.40;0.60;;;;;;;18.36;100.00;99864.81;109443;1283;99766;-51
2023/09/14 07:09:17;;;;;;;2.00;0.40;;;;;;;18.49;100.00;99864.70;109192;1283;22418;-48
2023/09/14 07:11:46;;;;;;;1.90;0.90;;;;;;;18.53;100.00;99872.46;109271;1283;100327;-49
2023/09/14 07:14:15;;;;;;;6.30;0.90;;;;;;;18.68;100.00;99876.88;109317;1283;22976;-48
2023/09/14 07:16:44;;;;;;;1.30;0.60;;;;;;;18.77;100.00;99872.79;109525;1283;99804;-46
2023/09/14 07:19:13;;;;;;;0.60;0.30;;;;;;;18.82;100.00;99875.75;109592;1283;22174;-51
2023/09/14 07:21:42;;;;;;;1.00;0.40;;;;;;;18.91;100.00;99883.81;109417;1283;22181;-51
2023/09/14 07:24:11;;;;;;;3.90;1.50;;;;;;;19.51;100.00;99883.95;109184;1284;99883;-51
2023/09/14 07:26:40;;;;;;;1.10;0.60;;;;;;;20.47;100.00;99884.62;109455;1286;22170;-48
2023/09/14 07:29:09;;;;;;;1.30;0.60;;;;;;;21.47;100.00;99877.05;109216;1283;100547;-48
2023/09/14 07:31:39;;;;;;;0.80;0.40;;;;;;;22.68;100.00;99879.16;109356;1284;22236;-53
2023/09/14 07:34:08;;;;;;;2.10;0.80;;;;;;;23.61;100.00;99885.08;109576;1284;23044;-47
2023/09/14 07:36:36;;;;;;;2.50;0.60;;;;;;;23.78;100.00;99892.82;109394;1283;100737;-51
2023/09/14 07:39:05;;;;;;;2.30;0.50;;;;;;;23.59;100.00;99892.74;109590;1283;22160;-52
2023/09/14 07:41:34;;;;;;;0.90;0.40;;;;;;;23.04;100.00;99895.63;109199;1286;101115;-46
2023/09/14 07:44:03;;;;;;;1.30;0.50;;;;;;;22.56;100.00;99900.88;109585;1283;22212;-50
2023/09/14 07:46:33;;;;;;;0.60;0.30;;;;;;;22.21;100.00;99903.14;109505;1283;99757;-50
2023/09/14 07:49:02;;;;;;;2.60;0.70;;;;;;;21.96;100.00;99904.13;109325;1286;22117;-48
2023/09/14 07:51:30;;;;;;;3.20;0.50;;;;;;;21.85;100.00;99911.23;109326;1284;22149;-50
2023/09/14 07:54:00;;;;;;;1.20;0.50;;;;;;;21.68;100.00;99916.06;109545;1286;99696;-48
2023/09/14 07:56:28;;;;;;;0.90;0.30;;;;;;;21.44;100.00;99921.63;109333;1286;22258;-50
2023/09/14 07:58:57;;;;;;;1.60;0.60;;;;;;;21.26;100.00;99926.77;109558;1283;99785;-51
2023/09/14 08:01:26;;;;;;;1.40;0.60;;;;;;;21.04;100.00;99926.94;109586;1282;22166;-47
2023/09/14 08:03:54;;;;;;;1.50;0.30;;;;;;;20.87;100.00;99927.20;109609;1286;22313;-48
2023/09/14 08:06:24;;;;;;;2.30;0.60;;;;;;;20.76;100.00;99934.61;109518;1283;100284;-49
2023/09/14 08:08:53;;;;;;;1.50;0.60;;;;;;;20.83;100.00;99941.80;109344;1283;22318;-49
2023/09/14 08:11:22;;;;;;;1.30;0.70;;;;;;;20.87;100.00;99947.18;109501;1284;100208;-48
2023/09/14 08:13:50;;;;;;;1.80;0.70;;;;;;;21.00;100.00;99948.48;109457;1283;22152;-51
2023/09/14 08:16:18;;;;;;;1.60;0.50;;;;;;;21.26;100.00;99947.23;109602;1283;22174;-46
2023/09/14 08:18:47;;;;;;;2.10;0.80;;;;;;;21.66;100.00;99946.36;109227;1283;99697;-47
2023/09/14 08:21:16;;;;;;;2.40;0.80;;;;;;;22.18;100.00;99948.76;109592;1283;22399;-48
2023/09/14 08:23:44;;;;;;;2.40;0.60;;;;;;;22.39;100.00;99951.83;109532;1284;100283;-51
2023/09/14 08:26:13;;;;;;;1.60;0.50;;;;;;;22.69;100.00;99951.27;109606;1283;22188;-47
2023/09/14 08:28:42;;;;;;;2.40;1.30;;;;;;;25.59;100.00;99948.90;109362;1283;100397;-50
2023/09/14 08:31:11;;;;;;;1.40;0.50;;;;;;;28.56;100.00;99950.64;109599;1286;22153;-50
2023/09/14 08:33:40;;;;;;;0.50;0.30;;;;;;;28.12;100.00;99955.85;109321;1283;22225;-52
2023/09/14 08:36:08;;;;;;;1.10;0.60;;;;;;;26.74;100.00;99954.96;109530;1283;100373;-50
2023/09/14 08:38:37;;;;;;;0.80;0.30;;;;;;;25.03;100.00;99961.23;109592;1283;22408;-53
2023/09/14 08:41:31;;;;;;;1.00;0.50;;;;;;;24.28;100.00;99969.58;109532;1283;100538;-52
2023/09/14 08:44:01;;;;;;;3.00;0.50;;;;;;;23.69;100.00;99977.41;109493;1283;22223;-50
2023/09/14 08:46:32;;;;;;;0.50;0.30;;;;;;;23.05;100.00;99978.59;109270;1284;100283;-51
2023/09/14 08:49:03;;;;;;;0.70;0.30;;;;;;;22.58;100.00;99983.91;109575;1284;23090;-50
2023/09/14 08:51:37;;;;;;;0.90;0.40;;;;;;;22.38;100.00;99990.06;109299;1284;22268;-46
2023/09/14 08:54:05;;;;;;;2.20;0.80;;;;;;;22.27;100.00;99997.60;109481;1283;99920;-48
2023/09/14 08:56:46;;;;;;;2.80;0.60;;;;;;;22.45;100.00;99997.21;109617;1283;22126;-50
2023/09/14 08:59:18;;;;;;;1.00;0.60;;;;;;;23.89;100.00;99990.42;109281;1283;100928;-49
2023/09/14 09:01:50;;;;;;;2.20;0.50;;;;;;;27.36;100.00;99985.71;109622;1283;22148;-50
2023/09/14 09:04:19;;;;;;;0.60;0.20;;;;;;;30.44;100.00;99987.46;109343;1284;22303;-51
2023/09/14 09:06:49;;;;;;;1.00;0.50;;;;;;;30.05;100.00;99998.91;109510;1283;100220;-52
2023/09/14 09:09:21;;;;;;;0.60;0.30;;;;;;;28.92;100.00;100007.80;109438;1284;22313;-51
2023/09/14 09:11:50;;;;;;;0.80;0.50;;;;;;;27.89;100.00;100010.23;109378;1283;100740;-50
2023/09/14 09:14:19;;;;;;;1.40;0.50;;;;;;;27.21;100.00;100010.32;109369;1284;22178;-50
2023/09/14 09:16:47;;;;;;;0.90;0.30;;;;;;;26.63;100.00;100012.06;109505;1282;100208;-50
2023/09/14 09:19:16;;;;;;;1.60;0.50;;;;;;;26.13;100.00;100008.92;109485;1283;22210;-51
2023/09/14 09:21:46;;;;;;;1.40;0.50;;;;;;;26.69;100.00;100011.30;109541;1283;22897;-47
2023/09/14 09:24:26;;;;;;;1.10;0.30;;;;;;;29.62;100.00;100015.23;109453;1280;100590;-49
2023/09/14 09:26:55;;;;;;;0.60;0.30;;;;;;;30.40;100.00;100015.48;109336;1283;22320;-50
2023/09/14 09:29:24;;;;;;;0.40;0.20;;;;;;;30.56;99.89;100018.21;109531;1283;101139;-51
2023/09/14 09:31:53;;;;;;;0.80;0.50;;;;;;;29.81;99.81;100024.17;109345;1283;22325;-50
2023/09/14 09:34:28;;;;;;;2.00;0.60;;;;;;;29.09;99.32;100028.73;109607;1284;22179;-48
2023/09/14 09:36:58;;;;;;;1.30;0.60;;;;;;;29.10;100.00;100028.23;109357;1285;22273;-51
2023/09/14 09:39:26;;;;;;;2.10;0.80;;;;;;;30.98;100.00;100016.92;109316;1284;22228;-51
2023/09/14 09:41:55;;;;;;;1.50;0.50;;;;;;;33.10;98.16;100019.10;109517;1283;100546;-51
2023/09/14 09:44:27;;;;;;;1.40;0.50;;;;;;;34.96;98.35;100016.67;109332;1286;22876;-52
2023/09/14 09:46:57;;;;;;;1.30;0.70;;;;;;;37.11;96.10;100014.41;109267;1285;100040;-51
2023/09/14 09:49:29;;;;;;;1.30;0.40;;;;;;;39.20;91.37;100007.93;109589;1280;22342;-54
2023/09/14 09:51:58;;;;;;;1.30;0.30;;;;;;;40.40;91.14;100002.86;109585;1284;22049;-48
2023/09/14 09:54:27;;;;;;;0.40;0.20;;;;;;;39.19;81.67;100005.59;109222;1283;101272;-49
2023/09/14 09:56:57;;;;;;;0.60;0.30;;;;;;;38.24;83.22;100013.45;109347;1285;22321;-49
2023/09/14 09:59:27;;;;;;;0.70;0.30;;;;;;;37.09;78.56;100022.93;109310;1283;100365;-51
2023/09/14 10:01:55;;;;;;;1.00;0.50;;;;;;;35.55;79.68;100022.77;109580;1283;22164;-47
2023/09/14 10:04:28;;;;;;;3.60;0.60;;;;;;;37.00;83.29;100025.95;109628;1286;22139;-52
2023/09/14 10:06:59;;;;;;;1.30;0.40;;;;;;;39.11;78.03;100020.96;109594;1283;23030;-53
2023/09/14 10:09:34;;;;;;;1.00;0.50;;;;;;;40.28;73.85;100022.02;109572;1284;22951;-54
2023/09/14 10:12:05;;;;;;;0.90;0.60;;;;;;;41.81;73.59;100034.81;109190;1285;100210;-54
2023/09/14 10:14:35;;;;;;;1.00;0.50;;;;;;;42.52;69.26;100044.33;109556;1283;22108;-54
2023/09/14 10:17:07;;;;;;;0.70;0.40;;;;;;;41.81;68.56;100048.38;109509;1284;102115;-54
2023/09/14 10:19:39;;;;;;;0.50;0.30;;;;;;;41.61;66.29;100044.94;109579;1283;23181;-54
2023/09/14 10:22:09;;;;;;;1.40;0.30;;;;;;;41.69;64.27;100040.95;109600;1284;22317;-55
2023/09/14 10:24:38;;;;;;;0.70;0.40;;;;;;;41.20;60.23;100044.48;109561;1283;100513;-54
2023/09/14 10:27:08;;;;;;;1.00;0.50;;;;;;;40.94;56.77;100043.18;109618;1283;22280;-54
2023/09/14 10:29:41;;;;;;;1.10;0.50;;;;;;;39.49;48.93;100036.65;109524;1289;99793;-54
2023/09/14 10:32:11;;;;;;;1.50;0.60;;;;;;;39.04;45.97;100039.38;109635;1283;22177;-54
2023/09/14 10:34:41;;;;;;;0.90;0.50;;;;;;;37.77;44.23;100044.70;109491;1286;99982;-54
2023/09/14 10:37:28;;;;;;;0.80;0.40;;;;;;;36.37;44.20;100052.32;109398;1283;22200;-54
2023/09/14 10:39:58;;;;;;;1.70;0.60;;;;;;;34.81;43.08;100050.45;109353;1283;22202;-53
2023/09/14 10:42:27;;;;;;;3.50;1.30;;;;;;;33.11;43.13;100057.49;109549;1283;100132;-53
2023/09/14 10:44:56;;;;;;;0.70;0.40;;;;;;;31.76;42.80;100055.60;109598;1283;23068;-52
2023/09/14 10:47:31;;;;;;;1.40;0.50;;;;;;;31.35;43.82;100057.17;109557;1283;100401;-52
2023/09/14 10:50:01;;;;;;;1.30;0.40;;;;;;;33.84;44.30;100055.45;109589;1283;22268;-54
2023/09/14 10:52:30;;;;;;;2.00;0.60;;;;;;;36.79;43.23;100052.20;109619;1283;22861;-54
2023/09/14 10:54:59;;;;;;;1.00;0.50;;;;;;;38.82;43.01;100055.71;109650;1289;22128;-54
2023/09/14 10:57:29;;;;;;;1.60;0.80;;;;;;;39.05;40.66;100059.77;109634;1289;22297;-54
2023/09/14 11:00:01;;;;;;;0.60;0.30;;;;;;;37.17;39.82;100066.08;109494;1286;99859;-54
2023/09/14 11:02:49;;;;;;;0.60;0.40;;;;;;;35.40;39.09;100067.34;109287;1283;22295;-54
2023/09/14 11:05:26;;;;;;;2.00;0.50;;;;;;;33.96;39.03;100067.88;109560;1283;99685;-53
2023/09/14 11:08:00;;;;;;;1.70;0.60;;;;;;;34.18;40.03;100065.27;109613;1283;22836;-54
2023/09/14 11:10:29;;;;;;;1.40;0.60;;;;;;;36.59;38.20;100059.65;109615;1283;22720;-54
2023/09/14 11:13:20;;;;;;;1.10;0.40;;;;;;;35.66;36.60;100064.48;109595;1286;22254;-53
2023/09/14 11:16:04;;;;;;;2.00;0.50;;;;;;;34.63;36.84;100071.66;109510;1283;22854;-54
2023/09/14 11:18:53;;;;;;;1.00;0.40;;;;;;;34.34;36.42;100072.67;109512;1283;100284;-52
2023/09/14 11:21:34;;;;;;;0.70;0.30;;;;;;;33.34;36.46;100073.70;109536;1286;22404;-55
2023/09/14 11:24:06;;;;;;;1.40;0.50;;;;;;;33.43;37.45;100071.60;109311;1286;99615;-55
2023/09/14 11:26:44;;;;;;;1.20;0.70;;;;;;;34.78;37.41;100068.18;109317;1283;22202;-52
2023/09/14 11:29:17;;;;;;;0.60;0.30;;;;;;;37.65;37.54;100067.58;109483;1285;99897;-55